sensor_id;sensor_type;location;lat;lon;timestamp;P1;durP1;ratioP1;P2;durP2;ratioP2
3831;SDS011;12460;42.662;23.288;2024-02-21T00:03:47;5.83;;;5.30;;
3831;SDS011;12460;42.662;23.288;2024-02-21T00:18:49;5.83;;;4.90;;
3831;SDS011;12460;42.662;23.288;2024-02-21T00:33:51;6.00;;;4.93;;
3831;SDS011;12460;42.662;23.288;2024-02-21T00:48:53;6.10;;;5.00;;
3831;SDS011;12460;42.662;23.288;2024-02-21T01:03:55;5.57;;;5.03;;
3831;SDS011;12460;42.662;23.288;2024-02-21T01:18:57;6.40;;;5.30;;
3831;SDS011;12460;42.662;23.288;2024-02-21T01:33:59;5.40;;;4.90;;
3831;SDS011;12460;42.662;23.288;2024-02-21T01:49:00;7.70;;;5.90;;
3831;SDS011;12460;42.662;23.288;2024-02-21T02:04:03;8.67;;;7.13;;
3831;SDS011;12460;42.662;23.288;2024-02-21T02:19:06;9.57;;;7.73;;
3831;SDS011;12460;42.662;23.288;2024-02-21T02:34:08;11.13;;;8.67;;
3831;SDS011;12460;42.662;23.288;2024-02-21T02:49:11;10.47;;;8.87;;
3831;SDS011;12460;42.662;23.288;2024-02-21T03:04:13;10.20;;;8.10;;
3831;SDS011;12460;42.662;23.288;2024-02-21T03:19:15;10.70;;;8.10;;
3831;SDS011;12460;42.662;23.288;2024-02-21T03:34:16;11.50;;;8.80;;
3831;SDS011;12460;42.662;23.288;2024-02-21T03:49:18;11.60;;;9.07;;
3831;SDS011;12460;42.662;23.288;2024-02-21T04:04:20;14.67;;;9.87;;
3831;SDS011;12460;42.662;23.288;2024-02-21T04:19:22;14.30;;;9.80;;
3831;SDS011;12460;42.662;23.288;2024-02-21T04:34:24;11.60;;;9.30;;
3831;SDS011;12460;42.662;23.288;2024-02-21T04:49:26;14.63;;;10.33;;
3831;SDS011;12460;42.662;23.288;2024-02-21T05:04:29;14.53;;;10.90;;
3831;SDS011;12460;42.662;23.288;2024-02-21T05:19:31;15.43;;;10.53;;
3831;SDS011;12460;42.662;23.288;2024-02-21T05:34:32;13.30;;;10.30;;
3831;SDS011;12460;42.662;23.288;2024-02-21T05:49:35;15.40;;;11.00;;
3831;SDS011;12460;42.662;23.288;2024-02-21T06:04:37;14.63;;;10.60;;
3831;SDS011;12460;42.662;23.288;2024-02-21T06:19:42;12.77;;;9.60;;
3831;SDS011;12460;42.662;23.288;2024-02-21T06:34:44;15.90;;;10.43;;
3831;SDS011;12460;42.662;23.288;2024-02-21T06:49:50;14.00;;;10.47;;
3831;SDS011;12460;42.662;23.288;2024-02-21T07:04:53;16.10;;;10.97;;
3831;SDS011;12460;42.662;23.288;2024-02-21T07:19:55;13.20;;;10.33;;
3831;SDS011;12460;42.662;23.288;2024-02-21T07:34:58;15.70;;;11.10;;
3831;SDS011;12460;42.662;23.288;2024-02-21T07:50:01;16.00;;;11.60;;
3831;SDS011;12460;42.662;23.288;2024-02-21T08:05:04;15.97;;;11.50;;
3831;SDS011;12460;42.662;23.288;2024-02-21T08:20:06;13.80;;;11.50;;
3831;SDS011;12460;42.662;23.288;2024-02-21T08:35:08;13.80;;;11.00;;
3831;SDS011;12460;42.662;23.288;2024-02-21T08:50:10;12.30;;;9.40;;
3831;SDS011;12460;42.662;23.288;2024-02-21T09:05:23;11.60;;;9.30;;
3831;SDS011;12460;42.662;23.288;2024-02-21T09:20:26;10.70;;;9.60;;
3831;SDS011;12460;42.662;23.288;2024-02-21T09:35:28;14.37;;;10.77;;
3831;SDS011;12460;42.662;23.288;2024-02-21T09:50:30;12.77;;;11.43;;
3831;SDS011;12460;42.662;23.288;2024-02-21T10:05:36;9.47;;;8.47;;
3831;SDS011;12460;42.662;23.288;2024-02-21T10:20:38;9.60;;;8.60;;
3831;SDS011;12460;42.662;23.288;2024-02-21T10:35:41;9.33;;;8.27;;
3831;SDS011;12460;42.662;23.288;2024-02-21T11:05:54;8.40;;;7.50;;
3831;SDS011;12460;42.662;23.288;2024-02-21T11:20:56;6.80;;;6.20;;
3831;SDS011;12460;42.662;23.288;2024-02-21T11:35:57;6.70;;;6.10;;
3831;SDS011;12460;42.662;23.288;2024-02-21T11:50:59;6.10;;;5.50;;
3831;SDS011;12460;42.662;23.288;2024-02-21T12:06:02;7.10;;;6.00;;
3831;SDS011;12460;42.662;23.288;2024-02-21T12:21:07;12.90;;;8.97;;
3831;SDS011;12460;42.662;23.288;2024-02-21T12:36:09;7.30;;;5.80;;
3831;SDS011;12460;42.662;23.288;2024-02-21T12:51:12;7.80;;;6.77;;
3831;SDS011;12460;42.662;23.288;2024-02-21T13:06:14;8.97;;;5.80;;
3831;SDS011;12460;42.662;23.288;2024-02-21T13:21:16;7.10;;;6.40;;
3831;SDS011;12460;42.662;23.288;2024-02-21T13:36:18;8.73;;;7.83;;
3831;SDS011;12460;42.662;23.288;2024-02-21T13:51:20;6.67;;;6.07;;
3831;SDS011;12460;42.662;23.288;2024-02-21T14:06:22;10.10;;;6.90;;
3831;SDS011;12460;42.662;23.288;2024-02-21T14:21:24;6.87;;;6.20;;
3831;SDS011;12460;42.662;23.288;2024-02-21T14:36:26;6.77;;;6.07;;
3831;SDS011;12460;42.662;23.288;2024-02-21T14:51:28;7.90;;;6.97;;
3831;SDS011;12460;42.662;23.288;2024-02-21T15:06:30;6.43;;;5.73;;
3831;SDS011;12460;42.662;23.288;2024-02-21T15:21:33;7.93;;;6.20;;
3831;SDS011;12460;42.662;23.288;2024-02-21T15:36:35;7.57;;;6.77;;
3831;SDS011;12460;42.662;23.288;2024-02-21T15:51:37;8.57;;;7.13;;
3831;SDS011;12460;42.662;23.288;2024-02-21T16:06:41;9.90;;;7.90;;
3831;SDS011;12460;42.662;23.288;2024-02-21T16:21:44;11.67;;;8.93;;
3831;SDS011;12460;42.662;23.288;2024-02-21T16:36:47;11.53;;;9.83;;
3831;SDS011;12460;42.662;23.288;2024-02-21T16:51:49;13.10;;;10.70;;
3831;SDS011;12460;42.662;23.288;2024-02-21T17:06:50;16.87;;;11.80;;
3831;SDS011;12460;42.662;23.288;2024-02-21T17:21:53;15.43;;;11.60;;
3831;SDS011;12460;42.662;23.288;2024-02-21T17:36:55;16.40;;;10.80;;
3831;SDS011;12460;42.662;23.288;2024-02-21T17:51:57;10.83;;;9.13;;
3831;SDS011;12460;42.662;23.288;2024-02-21T18:06:59;10.37;;;9.27;;
3831;SDS011;12460;42.662;23.288;2024-02-21T18:22:01;12.87;;;9.17;;
3831;SDS011;12460;42.662;23.288;2024-02-21T18:37:04;9.00;;;7.63;;
3831;SDS011;12460;42.662;23.288;2024-02-21T18:52:06;10.70;;;8.30;;
3831;SDS011;12460;42.662;23.288;2024-02-21T19:07:09;9.23;;;7.33;;
3831;SDS011;12460;42.662;23.288;2024-02-21T19:22:11;5.67;;;5.17;;
3831;SDS011;12460;42.662;23.288;2024-02-21T19:37:13;4.87;;;4.37;;
3831;SDS011;12460;42.662;23.288;2024-02-21T19:52:15;3.50;;;3.20;;
3831;SDS011;12460;42.662;23.288;2024-02-21T20:07:17;2.30;;;2.20;;
3831;SDS011;12460;42.662;23.288;2024-02-21T20:22:19;2.03;;;1.93;;
3831;SDS011;12460;42.662;23.288;2024-02-21T20:37:21;2.33;;;2.23;;
3831;SDS011;12460;42.662;23.288;2024-02-21T20:52:24;4.23;;;3.83;;
3831;SDS011;12460;42.662;23.288;2024-02-21T21:07:26;5.17;;;4.33;;
3831;SDS011;12460;42.662;23.288;2024-02-21T21:22:30;4.20;;;3.83;;
3831;SDS011;12460;42.662;23.288;2024-02-21T21:37:32;3.90;;;3.60;;
3831;SDS011;12460;42.662;23.288;2024-02-21T21:52:35;4.13;;;3.73;;
3831;SDS011;12460;42.662;23.288;2024-02-21T22:07:37;3.67;;;3.33;;
3831;SDS011;12460;42.662;23.288;2024-02-21T22:22:39;4.30;;;3.90;;
3831;SDS011;12460;42.662;23.288;2024-02-21T22:37:40;6.33;;;5.23;;
3831;SDS011;12460;42.662;23.288;2024-02-21T22:52:44;8.60;;;5.87;;
3831;SDS011;12460;42.662;23.288;2024-02-21T23:07:46;7.53;;;5.47;;
3831;SDS011;12460;42.662;23.288;2024-02-21T23:22:53;5.90;;;4.93;;
3831;SDS011;12460;42.662;23.288;2024-02-21T23:37:55;4.80;;;4.33;;
3831;SDS011;12460;42.662;23.288;2024-02-21T23:52:57;3.87;;;3.57;;
